クィーン・ベアトリクス国際空港の過去48時間の天気

クィーン・ベアトリクス国際空港 (Queen Beatrix Airport)

現在時刻: 10/4 10:02 AST (10/4 14:02 UTC) 以下の時間は現地時間です。

過去48時間のMETAR気象情報
時間 風向 風速(m/s) 視程 気温(℃) 湿度(%) 気圧(hPa) 天気現象
4 09:00 7 10km以上 28 84 1012 周辺でしゅう雨
4 08:00 5 10km以上 29 79 1011
4 07:00 4 10km以上 28 84 1011
4 06:12 6 10km以上 28 84 -
3 22:00 6 10km以上 29 79 1011
3 21:00 6 10km以上 29 74 1011
3 20:00 東北東 6 10km以上 29 79 1010
3 19:00 東北東 7 10km以上 30 75 1009
3 18:00 東北東 7 10km以上 30 75 1009
3 17:00 7 10km以上 30 75 1009
3 16:00 8 10km以上 31 70 1010
3 15:00 8 10km以上 31 70 1010
3 14:00 7 10km以上 32 71 1011
3 13:00 東南東 7 10km以上 32 67 1012
3 12:00 東南東 7 10km以上 32 67 1013
3 11:00 7 10km以上 31 70 1014
3 10:00 8 10km以上 41 41 1014
3 09:00 東南東 6 10km以上 30 75 1014
3 08:00 東南東 5 10km以上 29 79 1013
3 07:00 4 10km以上 27 84 1012
3 06:00 4 10km以上 27 89 1012
3 05:00 4 10km以上 28 84 1012
3 04:00 5 10km以上 28 84 1012
3 03:00 5 10km以上 28 84 1012
3 02:00 5 10km以上 28 84 1013
3 01:00 5 10km以上 29 79 1013
3 00:00 5 10km以上 29 84 1013
2 23:00 東北東 7 10km以上 29 84 1013
2 21:00 8 10km以上 29 84 1012
2 20:00 7 10km以上 29 84 1012
2 19:00 6 10km以上 30 70 1011
2 18:00 7 10km以上 30 70 1011
2 17:00 7 10km以上 32 63 1011
2 16:00 東南東 7 10km以上 32 63 1011
2 15:00 6 10km以上 32 67 1012
2 14:00 東南東 8 10km以上 32 67 1012
2 13:00 東南東 8 10km以上 32 67 1013
2 12:00 南東 7 10km以上 31 75 1014
2 11:00 南東 8 10km以上 30 79 1014
TNCA 041300Z 10013KT 9999 VCSH FEW015TCU SCT020 28/25 Q1012 NOSIG
TNCA 041200Z 08010KT 050V110 9999 FEW015TCU SCT018 29/25 Q1011 NOSIG
TNCA 041100Z 09008KT 9999 SCT018 28/25 Q1011 RERA NOSIG
TNCA 04040Z 08011KT 9999 FEW018 28/25 Q1012 NOSIG
TNCA 040200Z 08012KT 9999 FEW019 29/25 Q1011 NOSIG
TNCA 040100Z 08012KT 9999 FEW020 29/24 Q1011 NOSIG
TNCA 040000Z 07012KT 9999 FEW020 29/25 Q1010 NOSIG
TNCA 032300Z 06014KT 9999 FEW021 30/25 Q1009 NOSIG
TNCA 032200Z 06014KT 9999 FEW021 30/25 Q1009 NOSIG
TNCA 032100Z 08014KT 9999 FEW021 30/25 Q1009 NOSIG
TNCA 032000Z 08016KT 9999 FEW024 31/25 Q1010 NOSIG
TNCA 031900Z 08016KT 9999 FEW024 31/25 Q1010 NOSIG
TNCA 031800Z 09014KT 9999 SCT024 32/26 Q1011 NOSIG
TNCA 031700Z 11013KT 9999 SCT022 32/25 Q1012 NOSIG
TNCA 031600Z 11013KT 9999 FEW022 32/25 Q1013 NOSIG
TNCA 031500Z 10014KT 9999 SCT022 31/25 Q1014 NOSIG
TNCA 031400Z 10016KT 9999 SCT020 41/25 Q1014 NOSIG
TNCA 031300Z 11011KT 9999 SCT020 30/25 Q1014 NOSIG
TNCA 031200Z 11009KT 9999 SCT018 29/25 Q1013 NOSIG
TNCA 031100Z 10008KT 9999 FEW018 27/24 Q1012 NOSIG
TNCA 031000Z 10008KT 9999 FEW018 27/25 Q1012 NOSIG
TNCA 030900Z 10008KT 9999 FEW017 28/25 Q1012 NOSIG
TNCA 030800Z 10009KT 9999 FEW017 28/25 Q1012 NOSIG
TNCA 030700Z 09010KT 9999 SCT018 28/25 Q1012 NOSIG
TNCA 030600Z 09009KT 9999 FEW017 28/25 Q1013 NOSIG
TNCA 030500Z 08009KT 9999 FEW017 29/25 Q1013 NOSIG
TNCA 030400Z 08010KT 9999 FEW017 29/26 Q1013 NOSIG
TNCA 030300Z 07014KT 9999 FEW019 29/26 Q1013 NOSIG
TNCA 030100Z 08016KT 9999 FEW01929/26 Q1012 NOSIG
TNCA 030000Z 08013KT 9999 FEW021 29/26 Q1012 NOSIG
TNCA 022300Z 09012KT 9999 SCT023 30/24 Q1011 NOSIG
TNCA 022200Z 09014KT 9999 SCT025 30/24 Q1011 NOSIG
TNCA 022100Z 10014KT 9999 SCT025 32/24 Q1011 NOSIG
TNCA 022000Z 11014KT 9999 SCT025 32/24 Q1011 NOSIG
TNCA 021900Z 10012KT 9999 SCT025 32/25 Q1012 NOSIG
TNCA 021800Z 11015KT 9999 SCT025 32/25 Q1012 NOSIG
TNCA 021700Z 11015KT 9999 SCT025 32/25 Q1013 NOSIG
TNCA 021600Z 14013KT 9999 BKN024 31/26 Q1014 NOSIG
TNCA 021500Z 14016KT 9999 BKN020 30/26 Q1014 NOSIG